Time;durP1;ratioP1;P1;durP2;ratioP2;P2;SDS_P1;SDS_P2;PMS_P1;PMS_P2;Temp;Humidity;BMP_temperature;BMP_pressure;BME280_temperature;BME280_humidity;BME280_pressure;Samples;Min_cycle;Max_cycle;Signal;HPM_P1;HPM_P2
2021/09/25 00:01:18;;;;;;;10.73;5.10;;;;;;;18.80;69.71;100084.94;5097117;28;20043;-62
2021/09/25 00:03:45;;;;;;;10.57;5.75;;;;;;;18.74;69.83;100069.41;5101685;28;20047;-60
2021/09/25 00:06:16;;;;;;;11.73;6.35;;;;;;;18.70;70.54;100078.53;5101199;28;20044;-60
2021/09/25 00:08:42;;;;;;;14.05;6.63;;;;;;;18.61;70.18;100057.16;5099347;28;20183;-62
2021/09/25 00:11:09;;;;;;;11.75;6.30;;;;;;;18.59;70.27;100071.63;5106679;28;20414;-64
2021/09/25 00:13:36;;;;;;;12.25;5.95;;;;;;;18.66;70.41;100073.91;5099508;28;20410;-64
2021/09/25 00:16:04;;;;;;;11.48;7.10;;;;;;;18.86;70.26;100077.91;5100542;28;20412;-62
2021/09/25 00:18:35;;;;;;;12.27;6.90;;;;;;;18.93;70.32;100086.66;5100347;28;20082;-63
2021/09/25 00:21:03;;;;;;;12.43;6.63;;;;;;;19.05;70.31;100074.56;5099467;28;20123;-62
2021/09/25 00:23:30;;;;;;;13.27;6.47;;;;;;;19.04;70.42;100082.22;5082482;28;20463;-62
2021/09/25 00:25:57;;;;;;;12.45;6.40;;;;;;;18.94;70.47;100051.56;5101035;28;20154;-57
2021/09/25 00:28:24;;;;;;;12.30;5.20;;;;;;;18.99;70.47;100056.97;5099212;28;20075;-59
2021/09/25 00:30:51;;;;;;;12.00;5.78;;;;;;;19.12;70.52;100072.81;5101144;28;20139;-60
2021/09/25 00:33:18;;;;;;;12.45;5.20;;;;;;;18.97;70.24;100059.31;5106403;28;20480;-59
2021/09/25 00:35:44;;;;;;;12.30;6.90;;;;;;;19.04;70.27;100059.59;5101211;28;20050;-60
2021/09/25 00:38:11;;;;;;;15.20;5.82;;;;;;;19.18;70.24;100082.75;5092367;28;20047;-59
2021/09/25 00:40:38;;;;;;;12.95;5.93;;;;;;;19.17;70.66;100083.91;5095566;28;20044;-59
2021/09/25 00:43:05;;;;;;;18.10;5.93;;;;;;;19.12;70.70;100075.66;5105636;28;20135;-59
2021/09/25 00:45:32;;;;;;;15.23;6.82;;;;;;;19.08;70.94;100069.03;5102912;28;20166;-60
2021/09/25 00:47:59;;;;;;;13.85;7.00;;;;;;;19.14;70.85;100081.78;5102730;28;20068;-60
2021/09/25 00:50:27;;;;;;;15.18;6.70;;;;;;;19.17;70.88;100069.75;5101234;28;20139;-60
2021/09/25 00:52:54;;;;;;;16.98;6.10;;;;;;;19.14;70.72;100073.31;5102717;28;20462;-60
2021/09/25 00:55:22;;;;;;;12.88;6.72;;;;;;;19.27;70.94;100078.97;5102772;28;20191;-60
2021/09/25 00:57:56;;;;;;;15.93;6.68;;;;;;;19.32;70.91;100081.59;5104907;28;20130;-60
2021/09/25 01:00:23;;;;;;;17.88;7.60;;;;;;;19.37;70.84;100072.84;5100514;27;20147;-60
2021/09/25 01:02:50;;;;;;;14.95;7.57;;;;;;;19.51;70.85;100083.84;5101846;27;20898;-59
2021/09/25 01:05:20;;;;;;;14.52;7.20;;;;;;;19.67;70.65;100109.50;5100339;28;20086;-59
2021/09/25 01:07:49;;;;;;;11.10;3.15;;;;;;;19.63;70.65;100103.72;5097964;28;20143;-60
2021/09/25 01:10:16;;;;;;;6.80;1.73;;;;;;;19.60;69.81;100116.56;5098040;28;20130;-59
2021/09/25 01:12:44;;;;;;;3.22;1.20;;;;;;;19.21;69.64;100109.50;5098374;28;20134;-58
2021/09/25 01:15:12;;;;;;;3.80;1.50;;;;;;;18.91;69.65;100098.34;5097078;28;20047;-61
2021/09/25 01:17:40;;;;;;;6.15;1.13;;;;;;;18.70;69.97;100072.88;5098324;28;20071;-61
2021/09/25 01:20:08;;;;;;;5.68;1.33;;;;;;;18.68;70.02;100078.03;5088914;28;20131;-62
2021/09/25 01:22:37;;;;;;;2.63;0.98;;;;;;;18.58;70.16;100067.16;5098884;28;20416;-62
2021/09/25 01:25:05;;;;;;;3.85;0.90;;;;;;;18.46;70.20;100072.75;5064214;28;20046;-63
2021/09/25 01:27:32;;;;;;;2.65;1.27;;;;;;;18.37;70.00;100120.06;5099462;28;20036;-64
2021/09/25 01:30:00;;;;;;;8.88;1.23;;;;;;;18.03;70.18;100102.16;5080357;28;20513;-64
2021/09/25 01:32:27;;;;;;;6.53;1.40;;;;;;;17.77;69.83;100074.06;5098029;28;20127;-63
2021/09/25 01:34:54;;;;;;;3.67;1.00;;;;;;;17.74;70.41;100097.28;5099341;28;20518;-63
2021/09/25 01:37:21;;;;;;;2.03;0.85;;;;;;;17.48;70.13;100083.31;5099987;28;20146;-63
2021/09/25 01:39:48;;;;;;;6.78;1.05;;;;;;;17.64;70.51;100118.28;5099839;28;20134;-56
2021/09/25 01:42:14;;;;;;;3.55;1.27;;;;;;;17.63;70.69;100113.78;5100060;28;20411;-55
2021/09/25 01:44:41;;;;;;;2.95;1.17;;;;;;;17.67;71.39;100113.94;5099702;28;20130;-57
2021/09/25 01:47:08;;;;;;;3.25;0.93;;;;;;;17.62;71.40;100105.66;5099605;28;21090;-59
2021/09/25 01:49:47;;;;;;;4.55;1.20;;;;;;;17.70;71.49;100111.25;5098078;28;20415;-59
2021/09/25 01:52:15;;;;;;;7.00;1.08;;;;;;;17.73;71.80;100093.66;5068045;28;20113;-58
2021/09/25 01:54:42;;;;;;;3.63;1.23;;;;;;;17.64;71.41;100081.59;5090489;28;20043;-62
2021/09/25 01:57:08;;;;;;;5.13;1.35;;;;;;;17.79;71.75;100093.50;5098379;28;20127;-62
2021/09/25 01:59:35;;;;;;;7.50;1.50;;;;;;;17.79;71.66;100096.31;5105055;28;20130;-62
2021/09/25 02:02:06;;;;;;;3.15;1.60;;;;;;;17.65;71.42;100088.88;5098098;28;20048;-63
2021/09/25 02:04:34;;;;;;;4.25;1.80;;;;;;;17.38;71.26;100058.28;5102803;28;20082;-62
2021/09/25 02:07:02;;;;;;;3.03;1.33;;;;;;;17.58;71.84;100088.59;5101230;28;20130;-63
2021/09/25 02:09:29;;;;;;;5.25;0.93;;;;;;;17.53;71.46;100102.88;5100135;28;20123;-64
2021/09/25 02:11:56;;;;;;;2.35;1.17;;;;;;;17.19;72.38;100093.34;5106141;28;20079;-63
2021/09/25 02:14:23;;;;;;;4.20;0.85;;;;;;;17.13;73.23;100100.38;5107815;28;20044;-64
2021/09/25 02:16:49;;;;;;;2.75;0.82;;;;;;;17.18;72.20;100099.34;5102943;28;20551;-62
2021/09/25 02:19:16;;;;;;;5.82;1.13;;;;;;;17.28;72.78;100098.97;5082269;28;20455;-62
2021/09/25 02:21:43;;;;;;;3.17;1.02;;;;;;;17.39;72.74;100091.81;5096196;28;20555;-63
2021/09/25 02:24:10;;;;;;;3.22;1.20;;;;;;;17.38;72.91;100080.84;5099993;28;20135;-63
2021/09/25 02:26:37;;;;;;;1.88;1.02;;;;;;;17.57;72.93;100097.38;5103217;28;20051;-65
2021/09/25 02:29:04;;;;;;;3.55;1.20;;;;;;;17.61;72.53;100065.31;5109623;28;20135;-62
2021/09/25 02:31:30;;;;;;;2.20;1.20;;;;;;;17.54;72.59;100076.31;5091441;28;20130;-62
2021/09/25 02:33:57;;;;;;;4.40;0.65;;;;;;;17.56;72.79;100090.91;5076811;28;20055;-62
2021/09/25 02:36:24;;;;;;;1.52;0.80;;;;;;;17.52;72.44;100067.34;5092927;28;20043;-68
2021/09/25 02:38:51;;;;;;;2.55;0.80;;;;;;;17.53;72.66;100052.06;5101562;28;20194;-68
2021/09/25 02:41:18;;;;;;;3.13;0.80;;;;;;;17.48;73.00;100052.25;5097631;28;20067;-68
2021/09/25 02:43:45;;;;;;;1.48;0.65;;;;;;;17.52;72.93;100045.59;5096964;28;20138;-69
2021/09/25 02:46:12;;;;;;;3.88;1.23;;;;;;;17.58;73.04;100049.06;5103552;28;20135;-69
2021/09/25 02:48:39;;;;;;;1.48;0.77;;;;;;;17.60;72.55;100048.69;5107894;28;20846;-68
2021/09/25 02:51:06;;;;;;;2.30;0.93;;;;;;;17.64;72.73;100042.06;5113180;28;20131;-68
2021/09/25 02:53:33;;;;;;;3.88;1.27;;;;;;;17.66;72.61;100047.34;5106150;28;20078;-68
2021/09/25 02:56:00;;;;;;;4.53;1.20;;;;;;;17.72;72.68;100038.34;5108455;28;20074;-68
2021/09/25 02:58:27;;;;;;;2.38;0.93;;;;;;;17.64;72.21;100025.13;5101494;28;20044;-69
2021/09/25 03:00:54;;;;;;;1.48;1.17;;;;;;;17.69;72.25;100026.91;5100394;28;20127;-69
2021/09/25 03:03:21;;;;;;;2.55;0.90;;;;;;;17.75;72.83;100025.53;5104965;28;20048;-69
2021/09/25 03:05:48;;;;;;;2.00;1.05;;;;;;;17.87;72.55;100027.66;5104901;28;20048;-60
2021/09/25 03:08:15;;;;;;;4.53;1.20;;;;;;;17.87;72.73;100033.28;5101433;28;20040;-60
2021/09/25 03:10:41;;;;;;;1.58;0.93;;;;;;;17.86;72.35;100032.47;5102916;28;20136;-61
2021/09/25 03:13:08;;;;;;;1.77;0.80;;;;;;;17.73;72.75;100042.00;5106546;28;20439;-61
2021/09/25 03:15:35;;;;;;;2.65;0.82;;;;;;;17.63;72.37;100017.78;5100978;28;20082;-61
2021/09/25 03:18:02;;;;;;;1.60;0.70;;;;;;;17.76;72.57;100033.69;5099054;28;20134;-64
2021/09/25 03:20:29;;;;;;;2.50;1.20;;;;;;;17.83;72.75;100026.69;5100452;28;20070;-62
2021/09/25 03:22:56;;;;;;;2.08;0.95;;;;;;;17.84;72.59;100017.03;5103236;28;20130;-65
2021/09/25 03:25:23;;;;;;;1.98;0.90;;;;;;;17.90;72.31;100021.31;5098510;28;20126;-64
2021/09/25 03:27:54;;;;;;;1.33;0.70;;;;;;;17.95;72.39;100023.94;5093194;28;20127;-64
2021/09/25 03:30:22;;;;;;;2.78;1.10;;;;;;;17.95;72.21;100015.47;5097301;28;20043;-60
2021/09/25 03:32:49;;;;;;;3.60;1.02;;;;;;;17.89;71.98;100006.38;5103225;28;20090;-63
2021/09/25 03:35:16;;;;;;;2.03;1.33;;;;;;;17.91;72.47;100003.19;5099940;28;20090;-63
2021/09/25 03:37:43;;;;;;;1.15;0.90;;;;;;;17.90;72.37;100012.84;5109340;28;20086;-64
2021/09/25 03:40:11;;;;;;;1.48;0.95;;;;;;;17.91;72.49;100011.66;5108395;27;20063;-65
2021/09/25 03:42:37;;;;;;;0.95;0.82;;;;;;;17.89;72.07;100008.38;5088771;28;20040;-63
2021/09/25 03:45:06;;;;;;;2.13;0.98;;;;;;;17.93;72.21;100012.16;5088228;28;20143;-64
2021/09/25 03:47:32;;;;;;;2.85;1.63;;;;;;;17.92;72.47;100005.69;5107738;28;20121;-61
2021/09/25 03:50:00;;;;;;;2.80;1.23;;;;;;;17.97;72.09;100007.47;5108101;28;20131;-60
2021/09/25 03:52:27;;;;;;;3.13;1.20;;;;;;;17.89;72.46;99995.06;5102016;28;20068;-61
2021/09/25 03:54:54;;;;;;;8.05;1.70;;;;;;;17.89;72.79;100006.38;5101901;28;20044;-60
2021/09/25 03:57:21;;;;;;;4.00;1.38;;;;;;;17.84;72.54;100009.38;5105645;28;20051;-60
2021/09/25 03:59:47;;;;;;;3.33;1.60;;;;;;;17.74;73.21;100016.25;5108799;28;20127;-60
2021/09/25 04:02:14;;;;;;;3.53;1.63;;;;;;;17.72;73.48;100018.56;5081597;28;20134;-60
2021/09/25 04:04:41;;;;;;;4.78;1.48;;;;;;;17.69;73.68;100026.91;5100567;28;20059;-60
2021/09/25 04:07:10;;;;;;;5.47;2.55;;;;;;;17.49;74.14;100011.56;5103133;28;20113;-60
2021/09/25 04:09:37;;;;;;;4.25;1.52;;;;;;;17.42;74.63;100019.75;5101314;28;20054;-60
2021/09/25 04:12:04;;;;;;;8.95;2.53;;;;;;;17.44;74.82;100023.06;5106755;28;20131;-60
2021/09/25 04:14:30;;;;;;;3.35;1.92;;;;;;;17.34;74.99;100020.63;5105678;28;20403;-60
2021/09/25 04:16:57;;;;;;;3.22;1.65;;;;;;;17.22;75.26;100002.38;5098905;28;20181;-61
2021/09/25 04:19:26;;;;;;;4.45;1.90;;;;;;;17.08;75.60;99995.31;5101217;27;20573;-60
2021/09/25 04:21:53;;;;;;;8.00;2.47;;;;;;;16.79;76.11;99966.72;5106011;28;20442;-60
2021/09/25 04:24:20;;;;;;;5.70;2.03;;;;;;;17.19;76.53;100011.53;5102128;27;20479;-60
2021/09/25 04:26:47;;;;;;;4.47;1.52;;;;;;;17.13;76.22;99990.34;5110666;27;20062;-65
2021/09/25 04:29:14;;;;;;;6.00;1.60;;;;;;;17.16;76.69;100009.41;5108816;28;20131;-62
2021/09/25 04:31:41;;;;;;;8.95;2.63;;;;;;;17.19;76.33;100008.69;5109816;28;20049;-61
2021/09/25 04:34:08;;;;;;;6.72;2.10;;;;;;;17.22;76.33;100005.22;5109284;28;20074;-62
2021/09/25 04:36:36;;;;;;;3.63;2.05;;;;;;;17.14;76.50;99989.16;5106717;28;20131;-61
2021/09/25 04:39:03;;;;;;;3.90;1.90;;;;;;;17.23;76.49;99997.56;5102744;28;20138;-64
2021/09/25 04:41:30;;;;;;;4.28;1.92;;;;;;;17.10;76.81;99996.66;5098243;28;20126;-63
2021/09/25 04:43:57;;;;;;;4.32;2.38;;;;;;;17.13;77.32;100004.44;5108554;28;20134;-63
2021/09/25 04:46:24;;;;;;;6.10;2.25;;;;;;;17.11;77.65;100012.41;5106067;28;20138;-62
2021/09/25 04:48:51;;;;;;;4.72;2.33;;;;;;;17.10;77.52;100004.28;5099514;28;20118;-64
2021/09/25 04:51:19;;;;;;;5.68;2.03;;;;;;;17.09;77.54;100011.06;5100772;27;20082;-64
2021/09/25 04:53:47;;;;;;;3.20;1.63;;;;;;;17.07;77.33;100011.44;5107688;28;20134;-62
2021/09/25 04:56:13;;;;;;;7.40;1.88;;;;;;;17.11;77.44;100023.69;5099149;28;20473;-61
2021/09/25 04:58:41;;;;;;;4.53;1.90;;;;;;;17.09;77.71;100028.81;5102839;28;20123;-61
2021/09/25 05:01:08;;;;;;;15.48;2.47;;;;;;;16.97;78.23;100042.81;5094566;28;20158;-61
2021/09/25 05:03:36;;;;;;;4.32;2.17;;;;;;;16.93;77.71;100039.03;5106440;28;20505;-60
2021/09/25 05:06:03;;;;;;;10.50;2.35;;;;;;;16.86;77.96;100030.25;5107509;28;20062;-59
2021/09/25 05:08:30;;;;;;;4.97;1.95;;;;;;;16.92;77.48;100011.97;5086309;28;20126;-59
2021/09/25 05:10:57;;;;;;;4.78;2.50;;;;;;;17.07;77.58;99986.03;5095541;28;20131;-62
2021/09/25 05:13:24;;;;;;;7.57;2.03;;;;;;;17.28;77.11;99966.34;5098812;28;20039;-61
2021/09/25 05:15:50;;;;;;;3.30;1.80;;;;;;;17.31;76.58;99953.56;5104866;28;20103;-61
2021/09/25 05:18:18;;;;;;;3.38;1.50;;;;;;;17.33;76.66;99976.59;5107869;28;20142;-61
2021/09/25 05:20:44;;;;;;;1.92;1.10;;;;;;;17.02;77.11;99980.56;5088357;28;20449;-60
2021/09/25 05:23:11;;;;;;;5.03;1.55;;;;;;;16.89;76.71;99976.81;5100297;28;20097;-61
2021/09/25 05:25:38;;;;;;;3.03;1.67;;;;;;;16.88;77.27;99992.06;5103457;28;20064;-61
2021/09/25 05:28:05;;;;;;;2.60;1.40;;;;;;;16.70;77.47;99971.53;5107788;28;20055;-60
2021/09/25 05:30:32;;;;;;;4.90;1.90;;;;;;;16.69;77.32;99983.16;5108004;28;20067;-60
2021/09/25 05:32:59;;;;;;;19.45;7.47;;;;;;;16.67;77.72;99969.38;5099031;28;20480;-60
2021/09/25 05:35:26;;;;;;;8.45;3.25;;;;;;;16.77;77.54;99987.97;5104033;28;20178;-60
2021/09/25 05:37:52;;;;;;;4.53;2.88;;;;;;;16.71;78.13;99987.25;5104316;28;20497;-60
2021/09/25 05:40:21;;;;;;;5.50;2.92;;;;;;;16.85;77.61;99981.44;5103365;28;20047;-61
2021/09/25 05:42:48;;;;;;;4.93;1.85;;;;;;;16.72;78.06;99976.84;5103266;28;20130;-60
2021/09/25 05:45:17;;;;;;;2.85;1.08;;;;;;;16.82;77.95;99965.22;5087173;28;20128;-60
2021/09/25 05:47:44;;;;;;;4.05;2.40;;;;;;;16.90;77.52;99966.34;5102302;28;20050;-58
2021/09/25 05:50:13;;;;;;;7.03;2.72;;;;;;;16.94;77.87;99976.63;5098335;28;20131;-59
2021/09/25 05:52:40;;;;;;;3.50;2.60;;;;;;;17.08;77.13;99990.50;5106359;28;20047;-60
2021/09/25 05:55:09;;;;;;;3.55;1.98;;;;;;;17.22;77.15;99984.63;5099273;28;20040;-59
2021/09/25 05:57:36;;;;;;;4.88;2.45;;;;;;;17.22;76.96;99979.00;5086985;28;20174;-59
2021/09/25 06:00:05;;;;;;;3.58;2.30;;;;;;;17.47;77.08;99991.31;5106759;28;20043;-59
2021/09/25 06:02:32;;;;;;;3.40;1.15;;;;;;;17.50;76.62;99984.97;5098087;28;20134;-62
2021/09/25 06:04:59;;;;;;;1.98;1.20;;;;;;;17.49;76.49;99986.16;5100635;28;20044;-60
2021/09/25 06:07:26;;;;;;;4.38;2.05;;;;;;;17.44;76.87;100006.13;5103852;28;20586;-54
2021/09/25 06:09:52;;;;;;;6.20;2.22;;;;;;;17.47;76.29;99985.66;5100524;28;20164;-62
2021/09/25 06:12:19;;;;;;;2.60;1.70;;;;;;;17.44;76.44;99989.19;5100255;28;20050;-57
2021/09/25 06:14:46;;;;;;;6.07;2.60;;;;;;;17.49;76.00;100017.22;5097366;28;20048;-56
2021/09/25 06:17:13;;;;;;;3.03;1.83;;;;;;;17.49;76.24;100020.03;5097821;28;20086;-61
2021/09/25 06:19:40;;;;;;;4.75;2.15;;;;;;;17.53;76.26;100023.81;5093505;28;20475;-59
2021/09/25 06:22:06;;;;;;;2.75;1.55;;;;;;;17.57;75.84;100024.78;5105258;28;20134;-59
2021/09/25 06:24:33;;;;;;;6.85;1.73;;;;;;;17.60;76.30;100018.47;5087987;28;20075;-60
2021/09/25 06:27:02;;;;;;;3.80;1.98;;;;;;;17.65;75.92;100015.47;5111288;28;20047;-62
2021/09/25 06:29:28;;;;;;;3.50;1.70;;;;;;;17.66;75.81;100030.41;5100396;28;20071;-63
2021/09/25 06:31:55;;;;;;;4.25;2.00;;;;;;;17.64;76.36;100019.47;5097564;28;20488;-59
2021/09/25 06:34:23;;;;;;;9.63;3.20;;;;;;;17.70;76.37;100032.19;5103228;27;20127;-59
2021/09/25 06:36:51;;;;;;;6.30;3.40;;;;;;;17.73;76.13;100031.50;5096912;28;20143;-59
2021/09/25 06:39:18;;;;;;;7.45;3.08;;;;;;;17.74;76.37;100033.19;5100442;28;20126;-59
2021/09/25 06:41:44;;;;;;;6.22;3.20;;;;;;;17.50;76.41;100008.41;5101801;27;20090;-60
2021/09/25 06:44:11;;;;;;;6.55;3.67;;;;;;;17.59;76.60;100036.59;5103183;28;20123;-59
2021/09/25 06:46:38;;;;;;;4.80;3.30;;;;;;;17.63;76.99;100040.38;5100076;28;20130;-60
2021/09/25 06:49:05;;;;;;;7.63;3.72;;;;;;;17.66;76.72;100036.88;5095781;28;20047;-59
2021/09/25 06:51:32;;;;;;;7.80;4.53;;;;;;;17.64;77.17;100033.59;5094962;28;20134;-58
2021/09/25 06:53:59;;;;;;;13.80;3.65;;;;;;;17.62;77.06;100037.91;5101177;28;20119;-58
2021/09/25 06:56:26;;;;;;;11.00;4.10;;;;;;;17.64;76.91;100042.06;5100966;28;20130;-58
2021/09/25 06:58:53;;;;;;;7.32;3.65;;;;;;;17.65;77.43;100055.00;5095576;28;20456;-58
2021/09/25 07:01:20;;;;;;;9.35;3.83;;;;;;;17.66;77.53;100058.63;5098882;28;21601;-58
2021/09/25 07:03:47;;;;;;;9.85;3.70;;;;;;;17.56;77.04;100034.44;5105024;28;20040;-58
2021/09/25 07:06:14;;;;;;;8.57;4.35;;;;;;;17.71;77.15;100055.63;5083370;28;20043;-58
2021/09/25 07:08:41;;;;;;;11.63;3.90;;;;;;;17.80;76.93;100072.56;5106009;28;20475;-58
2021/09/25 07:11:08;;;;;;;14.43;4.78;;;;;;;17.87;77.11;100067.19;5097911;28;20489;-58
2021/09/25 07:13:36;;;;;;;8.05;3.15;;;;;;;17.88;77.05;100069.69;5098913;28;20071;-57
2021/09/25 07:16:03;;;;;;;9.00;2.75;;;;;;;17.89;77.04;100071.34;5099024;28;20419;-57
2021/09/25 07:18:30;;;;;;;9.27;4.35;;;;;;;17.88;76.95;100074.50;5098507;28;20139;-58
2021/09/25 07:20:57;;;;;;;6.25;3.30;;;;;;;17.92;77.07;100084.78;5094335;27;20123;-58
2021/09/25 07:23:24;;;;;;;8.85;3.67;;;;;;;17.91;77.28;100090.75;5096927;28;20071;-58
2021/09/25 07:25:50;;;;;;;12.38;4.20;;;;;;;17.96;77.11;100102.69;5100214;28;20126;-58
2021/09/25 07:28:17;;;;;;;8.90;3.88;;;;;;;17.96;76.94;100096.22;5095074;28;20140;-59
2021/09/25 07:30:48;;;;;;;18.00;4.53;;;;;;;17.99;77.21;100099.19;5096940;28;20135;-58
2021/09/25 07:33:16;;;;;;;13.38;4.78;;;;;;;18.00;77.20;100094.38;5102130;28;20043;-58
2021/09/25 07:35:44;;;;;;;14.30;5.30;;;;;;;18.11;76.97;100104.09;5100464;28;20109;-58
2021/09/25 07:38:11;;;;;;;20.55;4.93;;;;;;;18.14;76.87;100100.59;5099529;28;20139;-58
2021/09/25 07:40:38;;;;;;;18.10;4.03;;;;;;;18.10;77.09;100065.72;5097538;28;20048;-59
2021/09/25 07:43:05;;;;;;;13.55;4.63;;;;;;;18.50;76.76;100116.13;5093648;27;20046;-60
2021/09/25 07:45:32;;;;;;;9.07;3.85;;;;;;;18.62;76.84;100113.38;5095095;28;20105;-59
2021/09/25 07:47:59;;;;;;;10.32;3.88;;;;;;;18.65;76.73;100106.19;5098179;28;20135;-61
2021/09/25 07:50:26;;;;;;;12.02;4.85;;;;;;;18.62;77.10;100109.72;5094508;28;20089;-60
2021/09/25 07:52:56;;;;;;;13.77;4.38;;;;;;;18.68;76.90;100111.16;5098432;28;20036;-60
2021/09/25 07:55:24;;;;;;;11.00;3.28;;;;;;;18.79;76.57;100114.44;5110964;28;20044;-61
2021/09/25 07:57:51;;;;;;;10.10;3.78;;;;;;;18.73;76.79;100125.09;5106885;27;20040;-60
2021/09/25 08:00:18;;;;;;;7.75;3.83;;;;;;;18.65;76.87;100129.66;5082989;28;20534;-60
2021/09/25 08:02:44;;;;;;;7.30;3.60;;;;;;;18.64;77.02;100136.47;5081252;28;20075;-60
2021/09/25 08:05:13;;;;;;;9.73;4.25;;;;;;;18.61;76.71;100125.84;5098879;28;20040;-60
2021/09/25 08:07:40;;;;;;;11.77;3.83;;;;;;;18.55;77.12;100120.75;5094424;28;20147;-60
2021/09/25 08:10:08;;;;;;;8.75;4.30;;;;;;;18.64;77.02;100130.00;5100815;28;20071;-60
2021/09/25 08:12:36;;;;;;;9.48;3.80;;;;;;;18.74;76.89;100142.94;5096573;28;20126;-60
2021/09/25 08:15:05;;;;;;;14.18;3.97;;;;;;;18.72;76.78;100129.13;5102860;28;20130;-59
2021/09/25 08:17:32;;;;;;;10.95;4.45;;;;;;;18.83;76.48;100138.00;5095447;28;20063;-59
2021/09/25 08:19:59;;;;;;;11.65;4.07;;;;;;;18.81;76.90;100131.88;5101559;28;20082;-60
2021/09/25 08:22:26;;;;;;;15.60;4.15;;;;;;;18.88;76.52;100140.66;5094332;28;20071;-59
2021/09/25 08:24:52;;;;;;;11.02;4.47;;;;;;;18.97;76.70;100149.84;5099868;28;20126;-59
2021/09/25 08:27:19;;;;;;;7.38;4.25;;;;;;;18.94;76.88;100150.59;5094213;28;20434;-58
2021/09/25 08:29:46;;;;;;;13.98;4.55;;;;;;;18.99;76.45;100155.19;5094887;28;20151;-59
2021/09/25 08:32:13;;;;;;;8.10;3.67;;;;;;;18.97;76.51;100151.88;5097622;28;20130;-59
2021/09/25 08:34:40;;;;;;;9.35;4.53;;;;;;;18.93;76.38;100154.56;5108086;28;20048;-60
2021/09/25 08:37:07;;;;;;;17.98;5.60;;;;;;;19.03;76.71;100168.28;5095630;28;20504;-65
2021/09/25 08:39:33;;;;;;;12.07;4.53;;;;;;;19.10;76.61;100182.69;5096981;28;20043;-65
2021/09/25 08:42:01;;;;;;;15.50;5.25;;;;;;;19.14;76.05;100172.38;5099564;28;20040;-65
2021/09/25 08:44:30;;;;;;;14.10;5.25;;;;;;;19.20;76.64;100180.63;5098725;28;20051;-69
2021/09/25 08:46:57;;;;;;;14.98;4.47;;;;;;;19.21;76.51;100183.09;5095796;28;20050;-69
2021/09/25 08:49:24;;;;;;;12.43;5.32;;;;;;;19.36;76.12;100190.13;5102750;28;20134;-68
2021/09/25 08:51:51;;;;;;;14.50;5.00;;;;;;;19.36;75.96;100192.97;5101735;28;20071;-68
2021/09/25 08:54:18;;;;;;;12.75;4.47;;;;;;;19.40;76.05;100200.41;5094050;28;20488;-68
2021/09/25 08:56:45;;;;;;;14.95;5.78;;;;;;;19.37;75.83;100197.44;5091131;28;20174;-71
2021/09/25 08:59:11;;;;;;;16.98;7.05;;;;;;;19.26;75.84;100187.75;5078949;28;20134;-67
2021/09/25 09:01:42;;;;;;;13.38;5.15;;;;;;;19.13;76.34;100186.84;5077816;28;20134;-68
2021/09/25 09:04:11;;;;;;;8.95;4.63;;;;;;;19.17;76.70;100187.81;5099990;28;20610;-70
2021/09/25 09:06:39;;;;;;;14.52;4.90;;;;;;;19.25;76.43;100214.38;5095745;28;20044;-70
2021/09/25 09:09:09;;;;;;;14.35;5.38;;;;;;;19.14;76.47;100183.69;5097168;28;20055;-68
2021/09/25 09:11:44;;;;;;;19.02;6.18;;;;;;;19.41;76.24;100210.53;5093026;28;20122;-62
2021/09/25 09:14:15;;;;;;;13.80;4.70;;;;;;;19.49;76.22;100214.47;5098932;27;20093;-68
2021/09/25 09:16:54;;;;;;;10.88;5.60;;;;;;;19.64;76.08;100219.50;5091765;28;20052;-67
2021/09/25 09:19:21;;;;;;;13.27;6.27;;;;;;;19.78;75.68;100229.69;5103861;28;20053;-72
2021/09/25 09:21:50;;;;;;;12.65;5.35;;;;;;;19.78;75.60;100218.34;5099228;28;20334;-76
2021/09/25 09:24:17;;;;;;;10.02;5.13;;;;;;;19.86;75.98;100232.44;5098994;28;20126;-77
2021/09/25 09:26:45;;;;;;;9.45;4.47;;;;;;;20.02;76.01;100238.22;5095582;28;20130;-76
2021/09/25 09:29:16;;;;;;;12.95;5.07;;;;;;;19.95;75.63;100229.50;5096501;28;20051;-69
2021/09/25 09:31:42;;;;;;;10.48;5.13;;;;;;;20.10;75.81;100240.16;5101090;28;20555;-74
2021/09/25 09:34:10;;;;;;;12.13;4.88;;;;;;;20.16;75.47;100246.41;5094130;28;20377;-69
2021/09/25 09:36:38;;;;;;;9.95;5.65;;;;;;;20.29;75.09;100239.56;5095256;28;20036;-70
2021/09/25 09:39:11;;;;;;;12.63;4.63;;;;;;;20.29;74.70;100239.56;5105785;28;20071;-69
2021/09/25 09:41:42;;;;;;;8.40;3.88;;;;;;;20.58;74.86;100235.69;5096213;28;20062;-70
2021/09/25 09:44:25;;;;;;;9.70;4.05;;;;;;;20.91;74.74;100243.22;5098174;28;20119;-70
2021/09/25 09:47:07;;;;;;;12.52;4.35;;;;;;;20.94;74.39;100245.34;5098964;28;20123;-70
2021/09/25 09:49:40;;;;;;;8.05;3.38;;;;;;;20.85;73.92;100243.81;5094811;28;20043;-68
2021/09/25 09:52:12;;;;;;;9.40;4.00;;;;;;;20.87;73.39;100264.16;5098960;28;20134;-70
2021/09/25 09:54:46;;;;;;;12.70;3.75;;;;;;;20.71;73.40;100261.22;5101522;28;20698;-69
2021/09/25 09:57:19;;;;;;;11.50;3.85;;;;;;;20.56;73.25;100255.06;5098263;28;20153;-68
2021/09/25 09:59:48;;;;;;;9.02;3.70;;;;;;;20.51;73.47;100266.69;5097145;28;20036;-71
2021/09/25 10:02:16;;;;;;;;;;;;;;;20.45;74.05;100270.06;5093599;28;20072;-69
2021/09/25 10:04:43;;;;;;;9.75;3.22;;;;;;;20.56;73.63;100277.78;5102915;28;19998;-69
2021/09/25 10:07:10;;;;;;;9.80;3.85;;;;;;;20.87;73.52;100276.34;5094117;28;20084;-70
2021/09/25 10:09:40;;;;;;;6.88;3.80;;;;;;;21.37;73.56;100266.56;5097751;28;20047;-70
2021/09/25 10:12:13;;;;;;;6.65;3.30;;;;;;;21.88;73.11;100269.63;5093677;28;20568;-68
2021/09/25 10:14:43;;;;;;;7.93;2.78;;;;;;;22.07;71.69;100276.63;5101084;28;20060;-67
2021/09/25 10:17:11;;;;;;;8.60;3.10;;;;;;;22.21;72.36;100282.72;5087949;28;20580;-67
2021/09/25 10:19:40;;;;;;;6.10;3.55;;;;;;;22.24;71.49;100276.28;5093783;28;20048;-68
2021/09/25 10:22:21;;;;;;;7.00;2.80;;;;;;;22.16;71.49;100283.00;5101110;28;20122;-68
2021/09/25 10:24:56;;;;;;;12.20;3.30;;;;;;;22.26;71.26;100282.44;5095404;28;20127;-68
2021/09/25 10:27:35;;;;;;;3.90;2.60;;;;;;;22.38;70.99;100279.50;5106616;28;20079;-67
2021/09/25 10:30:05;;;;;;;6.83;2.67;;;;;;;22.52;70.34;100283.91;5105115;28;20446;-68
2021/09/25 10:32:53;;;;;;;5.07;2.80;;;;;;;22.56;69.64;100285.63;5091827;28;20040;-68
2021/09/25 10:35:23;;;;;;;3.28;1.98;;;;;;;22.43;69.50;100270.69;5100089;28;20044;-68
2021/09/25 10:38:01;;;;;;;8.77;2.50;;;;;;;22.56;69.56;100271.41;5075956;28;20611;-69
2021/09/25 10:40:48;;;;;;;7.25;2.78;;;;;;;22.66;69.24;100295.63;5094277;28;20044;-69
2021/09/25 10:43:24;;;;;;;6.05;2.80;;;;;;;22.46;69.38;100260.59;5111929;28;20135;-68
2021/09/25 10:45:53;;;;;;;13.75;2.97;;;;;;;22.71;68.97;100298.22;5101838;28;20399;-68
2021/09/25 10:48:23;;;;;;;5.47;2.65;;;;;;;22.88;69.05;100294.97;5110609;28;20550;-68
2021/09/25 10:50:54;;;;;;;6.43;2.55;;;;;;;23.26;68.38;100299.13;5108590;28;20045;-68
2021/09/25 10:53:42;;;;;;;6.30;3.28;;;;;;;23.72;68.37;100298.50;5111004;28;20043;-68
2021/09/25 10:56:19;;;;;;;5.75;2.13;;;;;;;24.04;67.06;100290.59;5098029;28;20047;-68
2021/09/25 10:59:06;;;;;;;4.70;2.42;;;;;;;24.11;66.02;100290.72;5108506;28;20142;-69
2021/09/25 11:01:34;;;;;;;5.15;2.28;;;;;;;24.46;66.22;100292.59;5104611;28;20044;-69
2021/09/25 11:04:06;;;;;;;6.13;2.45;;;;;;;24.50;65.92;100290.63;5093272;28;20055;-69
2021/09/25 11:06:38;;;;;;;7.50;2.65;;;;;;;24.29;65.16;100293.91;5109415;28;20063;-69
2021/09/25 11:09:15;;;;;;;6.72;2.08;;;;;;;24.07;65.25;100298.41;5108433;28;20055;-68
2021/09/25 11:11:50;;;;;;;4.53;2.17;;;;;;;24.01;65.33;100289.31;5112304;28;20080;-68
2021/09/25 11:14:23;;;;;;;3.92;2.28;;;;;;;23.83;64.27;100294.69;5095099;28;20071;-69
2021/09/25 11:17:00;;;;;;;4.30;1.90;;;;;;;23.77;64.43;100307.59;5106203;28;20048;-69
2021/09/25 11:19:29;;;;;;;4.57;2.92;;;;;;;23.81;63.52;100313.34;5113464;28;20487;-69
2021/09/25 11:22:13;;;;;;;5.97;2.72;;;;;;;24.17;63.95;100309.19;5109448;28;20206;-68
2021/09/25 11:24:47;;;;;;;3.67;2.28;;;;;;;25.15;63.45;100310.47;5108978;28;20134;-69
2021/09/25 11:27:39;;;;;;;2.45;1.98;;;;;;;26.21;60.91;100315.91;5112542;28;20456;-68
2021/09/25 11:30:14;;;;;;;4.90;1.73;;;;;;;26.84;58.61;100319.81;5090156;28;20562;-68